CheckWX is a tool to help pilots better visualize weather data.  It is not intended as a substitute for an official pre-flight weather briefing.

10:09:31 UTC

LTBP TAF
Yalova Airport
Çiftlikköy, Turkey
TAF LTBP 260740Z 2609/2618 04015KT 9999 SCT040

Jun-26@
09:00 UTC

Jun-26 @ 09:00 UTC

Jun-26@
18:00 UTC

Jun-26 @ 18:00 UTC

TAF LTBP 260740Z 2609/2618 04015KT 9999 SCT040
Wind
  • 040° at 15 KTS
Cloud Levels
  • Scattered at 4,000' AGL